Larvik — C6VC2 — position and weather

sailwx.info

Track history (hours):
 
Tides and Currents Weather Stations Pressure Air Temp Water Temp Dewpoint Dewpoint Depression Visibility Wind Speed Wind Dir Waves Ship Positions

Larvik

Last reported at 2017-Nov-19 00:23 UTC. Time now 2017-Nov-21 19:03 UTC.
Position N 25°42' W 115°32'.

Length 214 m; draft 7.2 m.

Type: Ship (hazmat cat D). MMSI: 308371000.

Date/timePositionNaut miles runAvg speedWind from/ knotsBaromVisibWave heightAir tempDewpointWater temp
2017-Nov-19 00:23N 25°42' W 115°32'1013.0
2017-Nov-18 23:38N 25°48' W 115°41'3713.3
2017-Nov-18 20:51N 26°11' W 116°13'53312.8
2017-Nov-17 03:07N 31°60' W 123°54'287 9.9
2017-Nov-15 22:16N 36°46' W 123°60'310.9
2017-Nov-15 22:00N 36°49' W 123°57'611.0
2017-Nov-15 21:30N 36°53' W 123°52'611.0
2017-Nov-15 21:00N 36°57' W 123°48'611.2
2017-Nov-15 20:30N 37°01' W 123°43'611.6
2017-Nov-15 20:00N 37°06' W 123°39'611.8
2017-Nov-15 19:30N 37°10' W 123°34'612.3
2017-Nov-15 19:00N 37°15' W 123°29'612.4
2017-Nov-15 18:30N 37°19' W 123°24'612.3
2017-Nov-15 18:00N 37°24' W 123°19'612.4
2017-Nov-15 17:30N 37°29' W 123°14'612.0
2017-Nov-15 17:00N 37°32' W 123°07'612.2
2017-Nov-15 16:30N 37°35' W 123°01'612.6
2017-Nov-15 16:00N 37°39' W 122°54'612.4
2017-Nov-15 15:30N 37°43' W 122°48'611.5
2017-Nov-15 15:01N 37°46' W 122°42'5 9.1
2017-Nov-15 14:30N 37°46' W 122°36'510.8
2017-Nov-15 14:00N 37°49' W 122°30'510.0
2017-Nov-15 13:30N 37°49' W 122°24'4 8.8
2017-Nov-15 13:00N 37°46' W 122°21'0 0.3
2017-Nov-15 12:30N 37°45' W 122°21'0 0.2
2017-Nov-15 12:00N 37°46' W 122°21'0 0.1
2017-Nov-15 11:30N 37°46' W 122°21'0 0.1
2017-Nov-15 11:00N 37°46' W 122°21'0 0.0
2017-Nov-15 10:30N 37°46' W 122°21'0 0.0
2017-Nov-15 10:00N 37°46' W 122°21'0 0.0
2017-Nov-15 09:30N 37°46' W 122°21'0 0.0
2017-Nov-15 09:00N 37°46' W 122°21'0 0.0
2017-Nov-15 08:30N 37°46' W 122°21'0 0.0
2017-Nov-15 08:00N 37°46' W 122°21'0 0.1
2017-Nov-15 07:30N 37°46' W 122°21'0 0.0
2017-Nov-15 07:00N 37°46' W 122°21'0 0.0
2017-Nov-15 06:30N 37°46' W 122°21'0 0.2
2017-Nov-15 06:00N 37°46' W 122°21'1 2.5
2017-Nov-15 05:30N 37°47' W 122°22'510.0
2017-Nov-15 05:00N 37°51' W 122°25'510.9
2017-Nov-15 04:30N 37°56' W 122°27'5 9.8
2017-Nov-15 04:00N 38°01' W 122°24'611.2
2017-Nov-15 03:30N 38°03' W 122°17'611.7
2017-Nov-15 03:00N 38°02' W 122°10'64 1.3
2017-Nov-13 01:57N 37°23' W 123°14'1 1.6
2017-Nov-13 01:23N 37°24' W 123°14'3 7.4
2017-Nov-13 01:00N 37°26' W 123°11'1 1.3
2017-Nov-13 00:30N 37°26' W 123°11'0 0.9
2017-Nov-13 00:01N 37°25' W 123°11'0 0.9
2017-Nov-12 23:31N 37°25' W 123°11'0 0.8
2017-Nov-12 23:00N 37°25' W 123°11'0 0.7
2017-Nov-12 22:30N 37°24' W 123°10'0 0.7
2017-Nov-12 22:01N 37°24' W 123°10'0 0.6
2017-Nov-12 21:31N 37°24' W 123°10'0 0.5
2017-Nov-12 20:55N 37°23' W 123°10'0 0.6
2017-Nov-12 20:28N 37°23' W 123°10'0 0.4
2017-Nov-12 19:19N 37°23' W 123°09'0 1.1
2017-Nov-12 19:01N 37°23' W 123°10'612.0
2017-Nov-12 18:31N 37°17' W 123°09'611.9
2017-Nov-12 18:01N 37°12' W 123°09'12711.3
2017-Nov-12 06:44N 35°06' W 122°43'311.5
2017-Nov-12 06:31N 35°04' W 122°41'3511.2
2017-Nov-12 03:25N 34°34' W 122°19'3811.2
2017-Nov-12 00:03N 34°04' W 121°53'111.3
2017-Nov-12 00:00N 34°03' W 121°52'611.3
2017-Nov-11 23:30N 33°59' W 121°48'611.2
2017-Nov-11 23:00N 33°55' W 121°43'611.1
2017-Nov-11 22:30N 33°51' W 121°39'510.9
2017-Nov-11 22:00N 33°47' W 121°34'510.5
2017-Nov-11 21:30N 33°43' W 121°30'510.5
2017-Nov-11 21:01N 33°39' W 121°25'610.8
2017-Nov-11 20:28N 33°35' W 121°21'510.6
2017-Nov-11 20:01N 33°31' W 121°17'510.6
2017-Nov-11 19:31N 33°27' W 121°13'510.4
2017-Nov-11 19:00N 33°23' W 121°08'510.4
2017-Nov-11 18:31N 33°20' W 121°04'510.4
2017-Nov-11 18:00N 33°16' W 120°60'810.5
2017-Nov-11 17:16N 33°10' W 120°54'310.6
2017-Nov-11 17:00N 33°08' W 120°51'610.7
2017-Nov-11 16:25N 33°04' W 120°46'410.8
2017-Nov-11 16:00N 33°00' W 120°42'610.7
2017-Nov-11 15:27N 32°56' W 120°38'510.9
2017-Nov-11 14:58N 32°52' W 120°34'17610.7
2017-Nov-10 22:29N 30°41' W 118°15'1010.1
2017-Nov-10 21:29N 30°32' W 118°09'  
Track history (hours):
 
Tides and Currents Weather Stations Pressure Air Temp Water Temp Dewpoint Dewpoint Depression Visibility Wind Speed Wind Dir Waves Ship Positions

Larvik

Last reported at 2017-Nov-19 00:23 UTC. Time now 2017-Nov-21 19:03 UTC.
Position N 25°42' W 115°32'.

Length 214 m; draft 7.2 m.

Type: Ship (hazmat cat D). MMSI: 308371000.

Date/timePositionNaut miles runAvg speedWind from/ knotsBaromVisibWave heightAir tempDewpointWater temp
2017-Nov-19 00:23N 25°42' W 115°32'1013.0
2017-Nov-18 23:38N 25°48' W 115°41'3713.3
2017-Nov-18 20:51N 26°11' W 116°13'53312.8
2017-Nov-17 03:07N 31°60' W 123°54'287 9.9
2017-Nov-15 22:16N 36°46' W 123°60'310.9
2017-Nov-15 22:00N 36°49' W 123°57'611.0
2017-Nov-15 21:30N 36°53' W 123°52'611.0
2017-Nov-15 21:00N 36°57' W 123°48'611.2
2017-Nov-15 20:30N 37°01' W 123°43'611.6
2017-Nov-15 20:00N 37°06' W 123°39'611.8
2017-Nov-15 19:30N 37°10' W 123°34'612.3
2017-Nov-15 19:00N 37°15' W 123°29'612.4
2017-Nov-15 18:30N 37°19' W 123°24'612.3
2017-Nov-15 18:00N 37°24' W 123°19'612.4
2017-Nov-15 17:30N 37°29' W 123°14'612.0
2017-Nov-15 17:00N 37°32' W 123°07'612.2
2017-Nov-15 16:30N 37°35' W 123°01'612.6
2017-Nov-15 16:00N 37°39' W 122°54'612.4
2017-Nov-15 15:30N 37°43' W 122°48'611.5
2017-Nov-15 15:01N 37°46' W 122°42'5 9.1
2017-Nov-15 14:30N 37°46' W 122°36'510.8
2017-Nov-15 14:00N 37°49' W 122°30'510.0
2017-Nov-15 13:30N 37°49' W 122°24'4 8.8
2017-Nov-15 13:00N 37°46' W 122°21'0 0.3
2017-Nov-15 12:30N 37°45' W 122°21'0 0.2
2017-Nov-15 12:00N 37°46' W 122°21'0 0.1
2017-Nov-15 11:30N 37°46' W 122°21'0 0.1
2017-Nov-15 11:00N 37°46' W 122°21'0 0.0
2017-Nov-15 10:30N 37°46' W 122°21'0 0.0
2017-Nov-15 10:00N 37°46' W 122°21'0 0.0
2017-Nov-15 09:30N 37°46' W 122°21'0 0.0
2017-Nov-15 09:00N 37°46' W 122°21'0 0.0
2017-Nov-15 08:30N 37°46' W 122°21'0 0.0
2017-Nov-15 08:00N 37°46' W 122°21'0 0.1
2017-Nov-15 07:30N 37°46' W 122°21'0 0.0
2017-Nov-15 07:00N 37°46' W 122°21'0 0.0
2017-Nov-15 06:30N 37°46' W 122°21'0 0.2
2017-Nov-15 06:00N 37°46' W 122°21'1 2.5
2017-Nov-15 05:30N 37°47' W 122°22'510.0
2017-Nov-15 05:00N 37°51' W 122°25'510.9
2017-Nov-15 04:30N 37°56' W 122°27'5 9.8
2017-Nov-15 04:00N 38°01' W 122°24'611.2
2017-Nov-15 03:30N 38°03' W 122°17'611.7
2017-Nov-15 03:00N 38°02' W 122°10'64 1.3
2017-Nov-13 01:57N 37°23' W 123°14'1 1.6
2017-Nov-13 01:23N 37°24' W 123°14'3 7.4
2017-Nov-13 01:00N 37°26' W 123°11'1 1.3
2017-Nov-13 00:30N 37°26' W 123°11'0 0.9
2017-Nov-13 00:01N 37°25' W 123°11'0 0.9
2017-Nov-12 23:31N 37°25' W 123°11'0 0.8
2017-Nov-12 23:00N 37°25' W 123°11'0 0.7
2017-Nov-12 22:30N 37°24' W 123°10'0 0.7
2017-Nov-12 22:01N 37°24' W 123°10'0 0.6
2017-Nov-12 21:31N 37°24' W 123°10'0 0.5
2017-Nov-12 20:55N 37°23' W 123°10'0 0.6
2017-Nov-12 20:28N 37°23' W 123°10'0 0.4
2017-Nov-12 19:19N 37°23' W 123°09'0 1.1
2017-Nov-12 19:01N 37°23' W 123°10'612.0
2017-Nov-12 18:31N 37°17' W 123°09'611.9
2017-Nov-12 18:01N 37°12' W 123°09'12711.3
2017-Nov-12 06:44N 35°06' W 122°43'311.5
2017-Nov-12 06:31N 35°04' W 122°41'3511.2
2017-Nov-12 03:25N 34°34' W 122°19'3811.2
2017-Nov-12 00:03N 34°04' W 121°53'111.3
2017-Nov-12 00:00N 34°03' W 121°52'611.3
2017-Nov-11 23:30N 33°59' W 121°48'611.2
2017-Nov-11 23:00N 33°55' W 121°43'611.1
2017-Nov-11 22:30N 33°51' W 121°39'510.9
2017-Nov-11 22:00N 33°47' W 121°34'510.5
2017-Nov-11 21:30N 33°43' W 121°30'510.5
2017-Nov-11 21:01N 33°39' W 121°25'610.8
2017-Nov-11 20:28N 33°35' W 121°21'510.6
2017-Nov-11 20:01N 33°31' W 121°17'510.6
2017-Nov-11 19:31N 33°27' W 121°13'510.4
2017-Nov-11 19:00N 33°23' W 121°08'510.4
2017-Nov-11 18:31N 33°20' W 121°04'510.4
2017-Nov-11 18:00N 33°16' W 120°60'810.5
2017-Nov-11 17:16N 33°10' W 120°54'310.6
2017-Nov-11 17:00N 33°08' W 120°51'610.7
2017-Nov-11 16:25N 33°04' W 120°46'410.8
2017-Nov-11 16:00N 33°00' W 120°42'610.7
2017-Nov-11 15:27N 32°56' W 120°38'510.9
2017-Nov-11 14:58N 32°52' W 120°34'17610.7
2017-Nov-10 22:29N 30°41' W 118°15'1010.1
2017-Nov-10 21:29N 30°32' W 118°09'  

Dump ship's entire track history